createdAt,value
2023-05-13T00:04:10.473Z,5.67
2023-05-13T00:09:12.417Z,5.50
2023-05-13T00:14:14.266Z,5.77
2023-05-13T00:19:16.197Z,5.93
2023-05-13T00:24:18.202Z,5.85
2023-05-13T00:29:20.094Z,5.65
2023-05-13T00:34:21.966Z,5.63
2023-05-13T00:39:24.015Z,5.30
2023-05-13T00:44:27.626Z,6.30
2023-05-13T00:49:29.603Z,5.93
2023-05-13T00:54:31.588Z,5.88
2023-05-13T00:59:33.685Z,6.65
2023-05-13T01:04:55.214Z,6.83
2023-05-13T01:10:03.669Z,11.10
2023-05-13T01:15:10.741Z,9.70
2023-05-13T01:20:12.668Z,8.15
2023-05-13T01:25:14.667Z,8.00
2023-05-13T01:30:16.639Z,7.63
2023-05-13T01:35:18.592Z,5.88
2023-05-13T01:40:31.776Z,6.05
2023-05-13T01:45:34.681Z,5.85
2023-05-13T01:50:36.623Z,4.72
2023-05-13T01:55:38.416Z,5.23
2023-05-13T02:00:40.424Z,4.47
2023-05-13T02:05:42.278Z,4.70
2023-05-13T02:10:44.226Z,4.80
2023-05-13T02:15:46.092Z,4.03
2023-05-13T02:20:48.096Z,4.97
2023-05-13T02:25:49.958Z,5.13
2023-05-13T02:30:51.982Z,4.95
2023-05-13T02:35:53.845Z,4.70
2023-05-13T02:40:55.813Z,5.05
2023-05-13T02:45:57.761Z,4.40
2023-05-13T02:50:59.630Z,5.47
2023-05-13T02:56:01.498Z,8.20
2023-05-13T03:01:03.502Z,8.15
2023-05-13T03:06:06.281Z,6.10
2023-05-13T03:11:08.194Z,4.75
2023-05-13T03:16:10.161Z,4.57
2023-05-13T03:21:12.116Z,4.13
2023-05-13T03:26:14.022Z,3.75
2023-05-13T03:31:16.053Z,3.92
2023-05-13T03:36:18.056Z,3.92
2023-05-13T03:41:20.129Z,3.50
2023-05-13T03:46:22.101Z,3.40
2023-05-13T03:51:24.145Z,3.33
2023-05-13T03:56:26.057Z,3.15
2023-05-13T04:01:28.514Z,3.97
2023-05-13T04:06:30.500Z,4.70
2023-05-13T04:11:33.343Z,4.82
2023-05-13T04:16:35.293Z,3.85
2023-05-13T04:21:37.234Z,3.72
2023-05-13T04:26:39.226Z,3.42
2023-05-13T04:31:41.475Z,3.20
2023-05-13T04:36:43.377Z,3.78
2023-05-13T04:41:45.312Z,4.18
2023-05-13T04:46:47.321Z,3.72
2023-05-13T04:51:49.346Z,3.45
2023-05-13T04:56:51.649Z,3.08
2023-05-13T05:01:53.549Z,3.00
2023-05-13T05:06:55.484Z,3.08
2023-05-13T05:11:57.410Z,2.80
2023-05-13T05:16:59.342Z,2.85
2023-05-13T05:22:01.246Z,2.50
2023-05-13T05:27:03.196Z,2.50
2023-05-13T05:32:05.570Z,2.55
2023-05-13T05:37:07.518Z,2.47
2023-05-13T05:42:09.402Z,2.40
2023-05-13T05:47:11.287Z,2.20
2023-05-13T05:52:13.339Z,2.20
2023-05-13T05:57:15.296Z,2.05
2023-05-13T06:02:17.157Z,2.20
2023-05-13T06:07:19.858Z,2.30
2023-05-13T06:12:21.775Z,2.35
2023-05-13T06:17:23.604Z,2.30
2023-05-13T06:22:25.567Z,1.92
2023-05-13T06:27:27.623Z,2.10
2023-05-13T06:32:29.550Z,2.05
2023-05-13T06:37:31.487Z,2.03
2023-05-13T06:42:33.470Z,1.75
2023-05-13T06:47:35.374Z,2.15
2023-05-13T06:52:40.552Z,2.10
2023-05-13T06:57:43.822Z,2.13
2023-05-13T07:02:45.681Z,2.80
2023-05-13T07:07:47.576Z,2.15
2023-05-13T07:12:49.331Z,2.28
2023-05-13T07:17:51.182Z,2.50
2023-05-13T07:22:53.083Z,2.30
2023-05-13T07:27:55.186Z,2.20
2023-05-13T07:32:57.274Z,2.63
2023-05-13T07:37:59.289Z,2.97
2023-05-13T07:43:01.166Z,2.60
2023-05-13T07:48:03.148Z,2.55
2023-05-13T07:53:04.978Z,2.45
2023-05-13T07:58:06.745Z,2.00
2023-05-13T08:03:08.607Z,2.28
2023-05-13T08:08:10.430Z,2.70
2023-05-13T08:13:12.190Z,2.42
2023-05-13T08:18:13.972Z,2.78
2023-05-13T08:23:15.712Z,3.20
2023-05-13T08:28:17.517Z,2.60
2023-05-13T08:33:19.340Z,2.60
2023-05-13T08:38:21.114Z,3.03
2023-05-13T08:43:23.704Z,2.75
2023-05-13T08:48:25.491Z,2.78
2023-05-13T08:53:27.268Z,2.90
2023-05-13T09:03:30.490Z,3.28
2023-05-13T09:13:33.718Z,2.83
2023-05-13T09:23:37.206Z,2.50
2023-05-13T09:33:40.474Z,2.42
2023-05-13T09:43:43.718Z,2.78
2023-05-13T09:53:47.545Z,3.28
2023-05-13T09:58:52.605Z,2.47
2023-05-13T10:03:57.603Z,3.25
2023-05-13T10:09:00.391Z,3.30
2023-05-13T10:14:05.187Z,2.60
2023-05-13T10:19:07.000Z,2.83
2023-05-13T10:24:08.855Z,3.58
2023-05-13T10:34:12.509Z,2.65
2023-05-13T10:39:27.545Z,2.58
2023-05-13T10:44:29.310Z,2.20
2023-05-13T10:54:39.972Z,2.63
2023-05-13T11:00:13.289Z,2.80
2023-05-13T11:05:21.624Z,2.50
2023-05-13T11:10:27.198Z,2.80
2023-05-13T11:15:46.425Z,3.30
2023-05-13T11:20:53.198Z,2.67
2023-05-13T11:26:12.173Z,2.22
2023-05-13T11:31:16.144Z,2.40
2023-05-13T11:36:17.957Z,2.30
2023-05-13T11:41:19.716Z,2.20
2023-05-13T11:46:22.948Z,2.13
2023-05-13T11:51:24.802Z,2.20
2023-05-13T12:01:28.562Z,5.57
2023-05-13T12:11:31.796Z,2.45
2023-05-13T12:21:35.580Z,2.22
2023-05-13T12:26:37.346Z,2.50
2023-05-13T12:36:40.814Z,2.30
2023-05-13T12:41:42.576Z,2.60
2023-05-13T12:51:55.478Z,2.50
2023-05-13T13:01:58.740Z,2.70
2023-05-13T13:12:02.048Z,2.50
2023-05-13T13:22:05.576Z,2.38
2023-05-13T13:27:07.384Z,2.92
2023-05-13T13:37:10.715Z,2.50
2023-05-13T13:47:14.789Z,2.53
2023-05-13T13:52:16.514Z,2.20
2023-05-13T14:02:19.739Z,2.70
2023-05-13T14:07:21.529Z,2.47
2023-05-13T14:12:23.294Z,2.40
2023-05-13T14:22:26.632Z,2.40
2023-05-13T14:27:28.615Z,2.35
2023-05-13T14:32:30.445Z,2.45
2023-05-13T14:37:32.293Z,2.67
2023-05-13T14:47:35.612Z,2.40
2023-05-13T14:57:38.911Z,2.60
2023-05-13T15:07:42.427Z,2.85
2023-05-13T15:17:45.709Z,3.17
2023-05-13T15:27:49.031Z,3.22
2023-05-13T15:37:52.382Z,3.28
2023-05-13T15:47:55.819Z,3.08
2023-05-13T15:52:57.719Z,3.08
2023-05-13T15:57:59.457Z,3.08
2023-05-13T16:03:01.456Z,3.42
2023-05-13T16:08:03.341Z,2.83
2023-05-13T16:13:05.130Z,3.58
2023-05-13T16:18:06.955Z,3.60
2023-05-13T16:28:10.833Z,3.42
2023-05-13T16:33:12.644Z,3.53
2023-05-13T16:38:14.463Z,3.25
2023-05-13T16:43:16.294Z,3.53
2023-05-13T16:48:18.131Z,3.38
2023-05-13T16:58:21.557Z,3.38
2023-05-13T17:03:23.496Z,3.10
2023-05-13T17:13:26.872Z,3.42
2023-05-13T17:18:28.618Z,3.92
2023-05-13T17:23:30.735Z,3.65
2023-05-13T17:33:34.286Z,4.22
2023-05-13T17:43:37.498Z,3.90
2023-05-13T17:48:39.351Z,4.00
2023-05-13T17:53:41.153Z,3.97
2023-05-13T17:58:42.895Z,5.15
2023-05-13T18:03:44.650Z,4.00
2023-05-13T18:08:46.378Z,4.35
2023-05-13T18:13:48.133Z,4.80
2023-05-13T18:18:49.934Z,3.42
2023-05-13T18:23:51.720Z,3.38
2023-05-13T18:28:53.491Z,4.75
2023-05-13T18:33:55.246Z,3.90
2023-05-13T18:38:57.046Z,3.42
2023-05-13T18:43:59.029Z,3.85
2023-05-13T18:49:01.004Z,4.20
2023-05-13T18:54:03.631Z,4.32
2023-05-13T18:59:05.555Z,4.13
2023-05-13T19:04:07.547Z,4.07
2023-05-13T19:14:11.240Z,4.85
2023-05-13T19:19:13.169Z,4.45
2023-05-13T19:24:15.095Z,4.85
2023-05-13T19:29:16.927Z,4.30
2023-05-13T19:34:18.778Z,4.07
2023-05-13T19:39:20.648Z,4.03
2023-05-13T19:44:22.588Z,4.15
2023-05-13T19:49:24.844Z,3.90
2023-05-13T19:59:28.349Z,3.35
2023-05-13T20:04:30.237Z,3.50
2023-05-13T20:09:32.094Z,3.17
2023-05-13T20:14:46.891Z,3.20
2023-05-13T20:19:49.440Z,3.05
2023-05-13T20:24:51.479Z,3.40
2023-05-13T20:29:53.455Z,3.78
2023-05-13T20:34:55.360Z,3.35
2023-05-13T20:39:57.280Z,3.10
2023-05-13T20:44:59.624Z,3.22
2023-05-13T20:55:03.387Z,2.80
2023-05-13T21:00:06.753Z,2.60
2023-05-13T21:05:12.081Z,2.47
2023-05-13T21:10:14.140Z,2.35
2023-05-13T21:15:16.167Z,2.47
2023-05-13T21:20:18.150Z,2.40
2023-05-13T21:25:20.110Z,2.60
2023-05-13T21:30:22.941Z,2.65
2023-05-13T21:35:25.060Z,2.55
2023-05-13T21:40:26.948Z,2.83
2023-05-13T21:45:28.784Z,2.38
2023-05-13T21:50:30.660Z,2.50
2023-05-13T21:55:32.774Z,2.30
2023-05-13T22:00:34.736Z,2.20
2023-05-13T22:05:36.739Z,3.08
2023-05-13T22:10:38.871Z,2.50
2023-05-13T22:15:40.845Z,2.15
2023-05-13T22:20:42.750Z,2.20
2023-05-13T22:25:44.631Z,2.40
2023-05-13T22:30:46.567Z,2.13
2023-05-13T22:35:48.461Z,2.10
2023-05-13T22:40:50.361Z,2.50
2023-05-13T22:45:52.320Z,2.13
2023-05-13T22:50:54.224Z,2.20
2023-05-13T22:55:56.214Z,2.30
2023-05-13T23:00:58.145Z,2.22
2023-05-13T23:06:00.064Z,2.72
2023-05-13T23:11:02.001Z,2.38
2023-05-13T23:16:04.068Z,2.22
2023-05-13T23:21:06.148Z,2.47
2023-05-13T23:26:08.037Z,2.47
2023-05-13T23:31:09.930Z,2.30
2023-05-13T23:36:11.881Z,2.47
2023-05-13T23:41:13.867Z,2.17
2023-05-13T23:46:15.878Z,2.38
2023-05-13T23:51:17.839Z,2.30
2023-05-13T23:56:19.749Z,2.40
